This is the latest recevied weather packets stored in our database for station/object iz1wiy-2. If no packets are shown the sender has not sent any weather packets the latest 1 day(s).
| Time | Temp. | Humidity | Pressure | Rain* | Wind** | Luminosity | Snow |
|---|---|---|---|---|---|---|---|
| 1836274677 | 23.33° C | 61% | 1022.9 hPa | 0 mm | 0.89 m/s, 36° | - | - |
| 1836274527 | 23.33° C | 62% | 1022.9 hPa | 0 mm | 0.89 m/s, 39° | - | - |
| 1836274377 | 23.33° C | 61% | 1022.9 hPa | 0 mm | 0.89 m/s, 39° | - | - |
| 1836274227 | 23.33° C | 61% | 1022.8 hPa | 0 mm | 0.89 m/s, 37° | - | - |
| 1836274077 | 22.78° C | 61% | 1022.9 hPa | 0 mm | 0.89 m/s, 36° | - | - |
| 1778033103 | 15.56° C | 85% | 1008.8 hPa | 4.06 mm | 0.45 m/s, 313° | - | - |
| 1778032804 | 15.56° C | 85% | 1008.9 hPa | 3.81 mm | 0.45 m/s, 315° | - | - |
| 1778032503 | 15.56° C | 85% | 1009.1 hPa | 3.81 mm | 0.45 m/s, 11° | - | - |
| 1778032203 | 15.56° C | 85% | 1009.2 hPa | 3.56 mm | 0.45 m/s, 12° | - | - |
| 1778031904 | 16.11° C | 85% | 1009.3 hPa | 2.79 mm | 0.45 m/s, 346° | - | - |
| 1778031603 | 16.11° C | 85% | 1009.2 hPa | 2.79 mm | 0 m/s | - | - |
| 1778031303 | 16.11° C | 85% | 1009.4 hPa | 2.03 mm | 0 m/s | - | - |
| 1778031003 | 16.11° C | 85% | 1009.4 hPa | 1.78 mm | 0 m/s | - | - |
| 1778030703 | 16.67° C | 85% | 1009.5 hPa | 1.52 mm | 0 m/s | - | - |
| 1778030403 | 16.11° C | 85% | 1009.8 hPa | 0.51 mm | 0 m/s | - | - |
| 1778030103 | 16.11° C | 85% | 1009.5 hPa | 0 mm | 0 m/s | - | - |
| 1778029803 | 16.11° C | 85% | 1009.5 hPa | 0 mm | 0.45 m/s, 7° | - | - |
| 1778029503 | 16.11° C | 85% | 1009.6 hPa | 0 mm | 0.45 m/s, 349° | - | - |
| 1778029203 | 16.11° C | 85% | 1009.6 hPa | 0 mm | 0.45 m/s, 355° | - | - |
| 1778028904 | 16.67° C | 85% | 1009.7 hPa | 0 mm | 0 m/s | - | - |
| 1778028603 | 16.67° C | 85% | 1009.6 hPa | 0 mm | 0.45 m/s, 301° | - | - |
| 1778028303 | 16.67° C | 85% | 1009.7 hPa | 0.25 mm | 0.89 m/s, 296° | - | - |
| 1778028003 | 16.67° C | 84% | 1009.9 hPa | 0.25 mm | 1.34 m/s, 221° | - | - |
| 1778027703 | 16.67° C | 85% | 1010 hPa | 0.25 mm | 1.34 m/s, 211° | - | - |
| 1778027403 | 16.67° C | 85% | 1010.1 hPa | 0.25 mm | 0.89 m/s, 203° | - | - |
* Rain latest hour (hover to see other rain measurements)
** Current wind speed in m/s (hover to see current wind gust speed)